sensor_id;sensor_type;location;lat;lon;timestamp;temperature;humidity
13960;DHT22;7052;51.050;3.716;2024-01-15T00:00:06;2.50;99.90
13960;DHT22;7052;51.050;3.716;2024-01-15T00:02:38;2.60;99.90
13960;DHT22;7052;51.050;3.716;2024-01-15T00:05:08;2.60;99.90
13960;DHT22;7052;51.050;3.716;2024-01-15T00:07:35;2.70;99.90
13960;DHT22;7052;51.050;3.716;2024-01-15T00:10:02;2.70;99.90
13960;DHT22;7052;51.050;3.716;2024-01-15T00:12:31;2.80;99.90
13960;DHT22;7052;51.050;3.716;2024-01-15T00:15:00;2.80;99.90
13960;DHT22;7052;51.050;3.716;2024-01-15T00:17:30;2.90;99.90
13960;DHT22;7052;51.050;3.716;2024-01-15T00:20:22;2.90;99.90
13960;DHT22;7052;51.050;3.716;2024-01-15T00:22:49;2.90;99.90
13960;DHT22;7052;51.050;3.716;2024-01-15T00:25:16;3.00;99.90
13960;DHT22;7052;51.050;3.716;2024-01-15T00:27:43;3.00;99.90
13960;DHT22;7052;51.050;3.716;2024-01-15T00:30:11;2.90;99.90
13960;DHT22;7052;51.050;3.716;2024-01-15T00:32:40;3.00;99.90
13960;DHT22;7052;51.050;3.716;2024-01-15T00:35:10;2.90;99.90
13960;DHT22;7052;51.050;3.716;2024-01-15T00:37:39;2.90;99.90
13960;DHT22;7052;51.050;3.716;2024-01-15T00:40:07;2.90;99.90
13960;DHT22;7052;51.050;3.716;2024-01-15T00:42:37;2.90;99.90
13960;DHT22;7052;51.050;3.716;2024-01-15T00:45:04;2.80;99.90
13960;DHT22;7052;51.050;3.716;2024-01-15T00:47:33;2.80;99.90
13960;DHT22;7052;51.050;3.716;2024-01-15T00:50:00;2.80;99.90
13960;DHT22;7052;51.050;3.716;2024-01-15T00:52:27;2.80;99.90
13960;DHT22;7052;51.050;3.716;2024-01-15T00:54:58;2.80;99.90
13960;DHT22;7052;51.050;3.716;2024-01-15T00:57:26;2.70;99.90
13960;DHT22;7052;51.050;3.716;2024-01-15T00:59:53;2.70;99.90
13960;DHT22;7052;51.050;3.716;2024-01-15T01:02:20;2.70;99.90
13960;DHT22;7052;51.050;3.716;2024-01-15T01:04:48;2.70;99.90
13960;DHT22;7052;51.050;3.716;2024-01-15T01:07:15;2.60;99.90
13960;DHT22;7052;51.050;3.716;2024-01-15T01:09:43;2.70;99.90
13960;DHT22;7052;51.050;3.716;2024-01-15T01:12:12;2.70;99.90
13960;DHT22;7052;51.050;3.716;2024-01-15T01:14:41;2.60;99.90
13960;DHT22;7052;51.050;3.716;2024-01-15T01:17:08;2.60;99.90
13960;DHT22;7052;51.050;3.716;2024-01-15T01:19:35;2.60;99.90
13960;DHT22;7052;51.050;3.716;2024-01-15T01:22:02;2.60;99.90
13960;DHT22;7052;51.050;3.716;2024-01-15T01:24:29;2.60;99.90
13960;DHT22;7052;51.050;3.716;2024-01-15T01:26:58;2.60;99.90
13960;DHT22;7052;51.050;3.716;2024-01-15T01:29:27;2.60;99.90
13960;DHT22;7052;51.050;3.716;2024-01-15T01:31:54;2.60;99.90
13960;DHT22;7052;51.050;3.716;2024-01-15T01:34:23;2.60;99.90
13960;DHT22;7052;51.050;3.716;2024-01-15T01:36:50;2.60;99.90
13960;DHT22;7052;51.050;3.716;2024-01-15T01:39:22;2.60;99.90
13960;DHT22;7052;51.050;3.716;2024-01-15T01:41:50;2.60;99.90
13960;DHT22;7052;51.050;3.716;2024-01-15T01:44:17;2.60;99.90
13960;DHT22;7052;51.050;3.716;2024-01-15T01:46:46;2.60;99.90
13960;DHT22;7052;51.050;3.716;2024-01-15T01:49:13;2.60;99.90
13960;DHT22;7052;51.050;3.716;2024-01-15T01:51:40;2.50;99.90
13960;DHT22;7052;51.050;3.716;2024-01-15T01:54:08;2.50;99.90
13960;DHT22;7052;51.050;3.716;2024-01-15T01:56:38;2.50;99.90
13960;DHT22;7052;51.050;3.716;2024-01-15T01:59:06;2.50;99.90
13960;DHT22;7052;51.050;3.716;2024-01-15T02:01:35;2.50;99.90
13960;DHT22;7052;51.050;3.716;2024-01-15T02:04:04;2.50;99.90
13960;DHT22;7052;51.050;3.716;2024-01-15T02:06:32;2.50;99.90
13960;DHT22;7052;51.050;3.716;2024-01-15T02:08:59;2.60;99.90
13960;DHT22;7052;51.050;3.716;2024-01-15T02:11:25;2.60;99.90
13960;DHT22;7052;51.050;3.716;2024-01-15T02:14:06;2.60;99.90
13960;DHT22;7052;51.050;3.716;2024-01-15T02:16:33;2.60;99.90
13960;DHT22;7052;51.050;3.716;2024-01-15T02:19:00;2.60;99.90
13960;DHT22;7052;51.050;3.716;2024-01-15T02:21:31;2.60;99.90
13960;DHT22;7052;51.050;3.716;2024-01-15T02:24:00;2.60;99.90
13960;DHT22;7052;51.050;3.716;2024-01-15T02:26:28;2.60;99.90
13960;DHT22;7052;51.050;3.716;2024-01-15T02:28:56;2.60;99.90
13960;DHT22;7052;51.050;3.716;2024-01-15T02:31:23;2.60;99.90
13960;DHT22;7052;51.050;3.716;2024-01-15T02:33:50;2.60;99.90
13960;DHT22;7052;51.050;3.716;2024-01-15T02:36:17;2.60;99.90
13960;DHT22;7052;51.050;3.716;2024-01-15T02:38:44;2.60;99.90
13960;DHT22;7052;51.050;3.716;2024-01-15T02:41:12;2.60;99.90
13960;DHT22;7052;51.050;3.716;2024-01-15T02:43:40;2.60;99.90
13960;DHT22;7052;51.050;3.716;2024-01-15T02:46:07;2.60;99.90
13960;DHT22;7052;51.050;3.716;2024-01-15T02:48:35;2.60;99.90
13960;DHT22;7052;51.050;3.716;2024-01-15T02:51:03;2.60;99.90
13960;DHT22;7052;51.050;3.716;2024-01-15T02:53:31;2.70;99.90
13960;DHT22;7052;51.050;3.716;2024-01-15T02:55:58;2.70;99.90
13960;DHT22;7052;51.050;3.716;2024-01-15T02:58:29;2.70;99.90
13960;DHT22;7052;51.050;3.716;2024-01-15T03:00:56;2.70;99.90
13960;DHT22;7052;51.050;3.716;2024-01-15T03:03:23;2.70;99.90
13960;DHT22;7052;51.050;3.716;2024-01-15T03:05:50;2.80;99.90
13960;DHT22;7052;51.050;3.716;2024-01-15T03:08:18;2.80;99.90
13960;DHT22;7052;51.050;3.716;2024-01-15T03:10:46;2.80;99.90
13960;DHT22;7052;51.050;3.716;2024-01-15T03:13:13;2.80;99.90
13960;DHT22;7052;51.050;3.716;2024-01-15T03:15:42;2.80;99.90
13960;DHT22;7052;51.050;3.716;2024-01-15T03:18:09;2.80;99.90
13960;DHT22;7052;51.050;3.716;2024-01-15T03:20:37;2.90;99.90
13960;DHT22;7052;51.050;3.716;2024-01-15T03:23:04;2.90;99.90
13960;DHT22;7052;51.050;3.716;2024-01-15T03:25:33;2.90;99.90
13960;DHT22;7052;51.050;3.716;2024-01-15T03:28:00;2.90;99.90
13960;DHT22;7052;51.050;3.716;2024-01-15T03:30:27;2.90;99.90
13960;DHT22;7052;51.050;3.716;2024-01-15T03:32:56;2.90;99.90
13960;DHT22;7052;51.050;3.716;2024-01-15T03:35:23;2.90;99.90
13960;DHT22;7052;51.050;3.716;2024-01-15T03:37:54;3.00;99.90
13960;DHT22;7052;51.050;3.716;2024-01-15T03:40:23;3.00;99.90
13960;DHT22;7052;51.050;3.716;2024-01-15T03:42:50;3.00;99.90
13960;DHT22;7052;51.050;3.716;2024-01-15T03:45:17;2.90;99.90
13960;DHT22;7052;51.050;3.716;2024-01-15T03:47:44;2.90;99.90
13960;DHT22;7052;51.050;3.716;2024-01-15T03:50:13;3.00;99.90
13960;DHT22;7052;51.050;3.716;2024-01-15T03:52:41;3.00;99.90
13960;DHT22;7052;51.050;3.716;2024-01-15T03:55:09;3.00;99.90
13960;DHT22;7052;51.050;3.716;2024-01-15T03:57:36;3.00;99.90
13960;DHT22;7052;51.050;3.716;2024-01-15T04:00:03;2.90;99.90
13960;DHT22;7052;51.050;3.716;2024-01-15T04:02:31;2.90;99.90
13960;DHT22;7052;51.050;3.716;2024-01-15T04:04:59;2.90;99.90
13960;DHT22;7052;51.050;3.716;2024-01-15T04:07:27;2.80;99.90
13960;DHT22;7052;51.050;3.716;2024-01-15T04:09:57;2.80;99.90
13960;DHT22;7052;51.050;3.716;2024-01-15T04:12:25;2.80;99.90
13960;DHT22;7052;51.050;3.716;2024-01-15T04:14:53;2.70;99.90
13960;DHT22;7052;51.050;3.716;2024-01-15T04:17:22;2.70;99.90
13960;DHT22;7052;51.050;3.716;2024-01-15T04:19:49;2.70;99.90
13960;DHT22;7052;51.050;3.716;2024-01-15T04:22:16;2.70;99.90
13960;DHT22;7052;51.050;3.716;2024-01-15T04:24:48;2.70;99.90
13960;DHT22;7052;51.050;3.716;2024-01-15T04:27:16;2.70;99.90
13960;DHT22;7052;51.050;3.716;2024-01-15T04:29:45;2.80;99.90
13960;DHT22;7052;51.050;3.716;2024-01-15T04:32:14;2.70;99.90
13960;DHT22;7052;51.050;3.716;2024-01-15T04:34:44;2.70;99.90
13960;DHT22;7052;51.050;3.716;2024-01-15T04:37:15;2.70;99.90
13960;DHT22;7052;51.050;3.716;2024-01-15T04:39:42;2.70;99.90
13960;DHT22;7052;51.050;3.716;2024-01-15T04:42:13;2.60;99.90
13960;DHT22;7052;51.050;3.716;2024-01-15T04:44:40;2.60;99.90
13960;DHT22;7052;51.050;3.716;2024-01-15T04:47:09;2.70;99.90
13960;DHT22;7052;51.050;3.716;2024-01-15T04:49:36;2.60;99.90
13960;DHT22;7052;51.050;3.716;2024-01-15T04:52:03;2.60;99.90
13960;DHT22;7052;51.050;3.716;2024-01-15T04:54:30;2.60;99.90
13960;DHT22;7052;51.050;3.716;2024-01-15T04:56:58;2.60;99.90
13960;DHT22;7052;51.050;3.716;2024-01-15T04:59:28;2.60;99.90
13960;DHT22;7052;51.050;3.716;2024-01-15T05:01:55;2.60;99.90
13960;DHT22;7052;51.050;3.716;2024-01-15T05:04:22;2.50;99.90
13960;DHT22;7052;51.050;3.716;2024-01-15T05:06:52;2.50;99.90
13960;DHT22;7052;51.050;3.716;2024-01-15T05:09:19;2.50;99.90
13960;DHT22;7052;51.050;3.716;2024-01-15T05:11:46;2.50;99.90
13960;DHT22;7052;51.050;3.716;2024-01-15T05:14:15;2.50;99.90
13960;DHT22;7052;51.050;3.716;2024-01-15T05:16:48;2.40;99.90
13960;DHT22;7052;51.050;3.716;2024-01-15T05:19:18;2.40;99.90
13960;DHT22;7052;51.050;3.716;2024-01-15T05:21:46;2.40;99.90
13960;DHT22;7052;51.050;3.716;2024-01-15T05:24:13;2.30;99.90
13960;DHT22;7052;51.050;3.716;2024-01-15T05:26:40;2.30;99.90
13960;DHT22;7052;51.050;3.716;2024-01-15T05:29:07;2.30;99.90
13960;DHT22;7052;51.050;3.716;2024-01-15T05:31:35;2.20;99.90
13960;DHT22;7052;51.050;3.716;2024-01-15T05:34:04;2.20;99.90
13960;DHT22;7052;51.050;3.716;2024-01-15T05:36:32;2.20;99.90
13960;DHT22;7052;51.050;3.716;2024-01-15T05:38:59;2.20;99.90
13960;DHT22;7052;51.050;3.716;2024-01-15T05:41:26;2.10;99.90
13960;DHT22;7052;51.050;3.716;2024-01-15T05:43:53;2.10;99.90
13960;DHT22;7052;51.050;3.716;2024-01-15T05:46:21;2.10;99.90
13960;DHT22;7052;51.050;3.716;2024-01-15T05:48:50;2.10;99.90
13960;DHT22;7052;51.050;3.716;2024-01-15T05:51:19;2.00;99.90
13960;DHT22;7052;51.050;3.716;2024-01-15T05:53:46;2.10;99.90
13960;DHT22;7052;51.050;3.716;2024-01-15T05:56:12;2.00;99.90
13960;DHT22;7052;51.050;3.716;2024-01-15T05:58:41;2.00;99.90
13960;DHT22;7052;51.050;3.716;2024-01-15T06:01:09;2.00;99.90
13960;DHT22;7052;51.050;3.716;2024-01-15T06:03:36;2.00;99.90
13960;DHT22;7052;51.050;3.716;2024-01-15T06:06:04;2.00;99.90
13960;DHT22;7052;51.050;3.716;2024-01-15T06:08:32;2.00;99.90
13960;DHT22;7052;51.050;3.716;2024-01-15T06:11:00;2.00;99.90
13960;DHT22;7052;51.050;3.716;2024-01-15T06:13:29;2.10;99.90
13960;DHT22;7052;51.050;3.716;2024-01-15T06:15:56;2.10;99.90
13960;DHT22;7052;51.050;3.716;2024-01-15T06:18:25;2.10;99.90
13960;DHT22;7052;51.050;3.716;2024-01-15T06:20:53;2.10;99.90
13960;DHT22;7052;51.050;3.716;2024-01-15T06:23:19;2.10;99.90
13960;DHT22;7052;51.050;3.716;2024-01-15T06:25:48;2.10;99.90
13960;DHT22;7052;51.050;3.716;2024-01-15T06:28:16;2.10;99.90
13960;DHT22;7052;51.050;3.716;2024-01-15T06:30:43;2.10;99.90
13960;DHT22;7052;51.050;3.716;2024-01-15T06:33:12;2.10;99.90
13960;DHT22;7052;51.050;3.716;2024-01-15T06:35:40;2.00;99.90
13960;DHT22;7052;51.050;3.716;2024-01-15T06:38:08;2.00;99.90
13960;DHT22;7052;51.050;3.716;2024-01-15T06:40:37;2.00;99.90
13960;DHT22;7052;51.050;3.716;2024-01-15T06:43:09;2.00;99.90
13960;DHT22;7052;51.050;3.716;2024-01-15T06:45:37;2.00;99.90
13960;DHT22;7052;51.050;3.716;2024-01-15T06:48:05;2.00;99.90
13960;DHT22;7052;51.050;3.716;2024-01-15T06:50:33;2.00;99.90
13960;DHT22;7052;51.050;3.716;2024-01-15T06:53:04;1.90;99.90
13960;DHT22;7052;51.050;3.716;2024-01-15T06:55:32;1.90;99.90
13960;DHT22;7052;51.050;3.716;2024-01-15T06:57:59;1.90;99.90
13960;DHT22;7052;51.050;3.716;2024-01-15T07:00:29;1.90;99.90
13960;DHT22;7052;51.050;3.716;2024-01-15T07:02:57;1.90;99.90
13960;DHT22;7052;51.050;3.716;2024-01-15T07:05:27;1.90;99.90
13960;DHT22;7052;51.050;3.716;2024-01-15T07:07:56;1.80;99.90
13960;DHT22;7052;51.050;3.716;2024-01-15T07:10:24;1.80;99.90
13960;DHT22;7052;51.050;3.716;2024-01-15T07:12:54;1.80;99.90
13960;DHT22;7052;51.050;3.716;2024-01-15T07:15:23;1.80;99.90
13960;DHT22;7052;51.050;3.716;2024-01-15T07:17:51;1.80;99.90
13960;DHT22;7052;51.050;3.716;2024-01-15T07:20:19;1.80;99.90
13960;DHT22;7052;51.050;3.716;2024-01-15T07:22:47;1.80;99.90
13960;DHT22;7052;51.050;3.716;2024-01-15T07:25:15;1.80;99.90
13960;DHT22;7052;51.050;3.716;2024-01-15T07:27:42;1.80;99.90
13960;DHT22;7052;51.050;3.716;2024-01-15T07:30:11;1.80;99.90
13960;DHT22;7052;51.050;3.716;2024-01-15T07:32:38;1.80;99.90
13960;DHT22;7052;51.050;3.716;2024-01-15T07:35:14;1.90;99.90
13960;DHT22;7052;51.050;3.716;2024-01-15T07:37:41;1.90;99.90
13960;DHT22;7052;51.050;3.716;2024-01-15T07:40:10;1.90;99.90
13960;DHT22;7052;51.050;3.716;2024-01-15T07:42:37;1.90;99.90
13960;DHT22;7052;51.050;3.716;2024-01-15T07:45:05;1.90;99.90
13960;DHT22;7052;51.050;3.716;2024-01-15T07:47:32;1.90;99.90
13960;DHT22;7052;51.050;3.716;2024-01-15T07:50:00;1.90;99.90
13960;DHT22;7052;51.050;3.716;2024-01-15T07:52:28;2.00;99.90
13960;DHT22;7052;51.050;3.716;2024-01-15T07:54:56;2.00;99.90
13960;DHT22;7052;51.050;3.716;2024-01-15T07:57:26;2.00;99.90
13960;DHT22;7052;51.050;3.716;2024-01-15T07:59:53;2.00;99.90
13960;DHT22;7052;51.050;3.716;2024-01-15T08:02:20;2.00;99.90
13960;DHT22;7052;51.050;3.716;2024-01-15T08:04:47;2.00;99.90
13960;DHT22;7052;51.050;3.716;2024-01-15T08:07:16;2.10;99.90
13960;DHT22;7052;51.050;3.716;2024-01-15T08:09:59;2.10;99.90
13960;DHT22;7052;51.050;3.716;2024-01-15T08:12:27;2.20;99.90
13960;DHT22;7052;51.050;3.716;2024-01-15T08:14:55;2.20;99.90
13960;DHT22;7052;51.050;3.716;2024-01-15T08:17:24;2.30;99.90
13960;DHT22;7052;51.050;3.716;2024-01-15T08:19:54;2.30;99.90
13960;DHT22;7052;51.050;3.716;2024-01-15T08:22:22;2.30;99.90
13960;DHT22;7052;51.050;3.716;2024-01-15T08:24:50;2.30;99.90
13960;DHT22;7052;51.050;3.716;2024-01-15T08:27:19;2.20;99.90
13960;DHT22;7052;51.050;3.716;2024-01-15T08:29:46;2.20;99.90
13960;DHT22;7052;51.050;3.716;2024-01-15T08:32:13;2.20;99.90
13960;DHT22;7052;51.050;3.716;2024-01-15T08:34:41;2.20;99.90
13960;DHT22;7052;51.050;3.716;2024-01-15T08:37:08;2.20;99.90
13960;DHT22;7052;51.050;3.716;2024-01-15T08:39:36;2.20;99.90
13960;DHT22;7052;51.050;3.716;2024-01-15T08:42:04;2.10;99.90
13960;DHT22;7052;51.050;3.716;2024-01-15T08:44:32;2.20;99.90
13960;DHT22;7052;51.050;3.716;2024-01-15T08:47:00;2.20;99.90
13960;DHT22;7052;51.050;3.716;2024-01-15T08:49:31;2.20;99.90
13960;DHT22;7052;51.050;3.716;2024-01-15T08:52:00;2.30;99.90
13960;DHT22;7052;51.050;3.716;2024-01-15T08:54:28;2.30;99.90
13960;DHT22;7052;51.050;3.716;2024-01-15T08:56:55;2.30;99.90
13960;DHT22;7052;51.050;3.716;2024-01-15T08:59:22;2.40;99.90
13960;DHT22;7052;51.050;3.716;2024-01-15T09:01:53;2.50;99.90
13960;DHT22;7052;51.050;3.716;2024-01-15T09:04:24;2.50;99.90
13960;DHT22;7052;51.050;3.716;2024-01-15T09:06:52;2.50;99.90
13960;DHT22;7052;51.050;3.716;2024-01-15T09:09:19;2.50;99.90
13960;DHT22;7052;51.050;3.716;2024-01-15T09:11:50;2.60;99.90
13960;DHT22;7052;51.050;3.716;2024-01-15T09:14:18;2.60;99.90
13960;DHT22;7052;51.050;3.716;2024-01-15T09:16:47;2.60;99.90
13960;DHT22;7052;51.050;3.716;2024-01-15T09:19:19;2.70;99.90
13960;DHT22;7052;51.050;3.716;2024-01-15T09:21:46;2.80;99.90
13960;DHT22;7052;51.050;3.716;2024-01-15T09:24:13;2.80;99.90
13960;DHT22;7052;51.050;3.716;2024-01-15T09:26:40;2.90;99.90
13960;DHT22;7052;51.050;3.716;2024-01-15T09:29:07;3.00;99.90
13960;DHT22;7052;51.050;3.716;2024-01-15T09:31:35;3.10;99.90
13960;DHT22;7052;51.050;3.716;2024-01-15T09:34:02;3.20;99.90
13960;DHT22;7052;51.050;3.716;2024-01-15T09:36:31;3.20;99.90
13960;DHT22;7052;51.050;3.716;2024-01-15T09:38:58;3.20;99.90
13960;DHT22;7052;51.050;3.716;2024-01-15T09:41:26;3.40;99.90
13960;DHT22;7052;51.050;3.716;2024-01-15T09:43:53;3.40;99.90
13960;DHT22;7052;51.050;3.716;2024-01-15T09:46:21;3.50;99.90
13960;DHT22;7052;51.050;3.716;2024-01-15T09:48:48;3.60;99.90
13960;DHT22;7052;51.050;3.716;2024-01-15T09:51:15;3.60;99.90
13960;DHT22;7052;51.050;3.716;2024-01-15T09:53:45;3.60;99.90
13960;DHT22;7052;51.050;3.716;2024-01-15T09:56:13;3.50;99.90
13960;DHT22;7052;51.050;3.716;2024-01-15T09:58:40;3.50;99.90
13960;DHT22;7052;51.050;3.716;2024-01-15T10:01:11;3.50;99.90
13960;DHT22;7052;51.050;3.716;2024-01-15T10:03:41;3.50;99.90
13960;DHT22;7052;51.050;3.716;2024-01-15T10:06:11;3.40;99.90
13960;DHT22;7052;51.050;3.716;2024-01-15T10:08:48;3.40;99.90
13960;DHT22;7052;51.050;3.716;2024-01-15T10:11:19;3.40;99.90
13960;DHT22;7052;51.050;3.716;2024-01-15T10:13:46;3.50;99.90
13960;DHT22;7052;51.050;3.716;2024-01-15T10:16:17;3.50;99.90
13960;DHT22;7052;51.050;3.716;2024-01-15T10:18:52;3.50;99.90
13960;DHT22;7052;51.050;3.716;2024-01-15T10:21:21;3.60;99.90
13960;DHT22;7052;51.050;3.716;2024-01-15T10:23:50;3.60;99.90
13960;DHT22;7052;51.050;3.716;2024-01-15T10:26:18;3.60;99.90
13960;DHT22;7052;51.050;3.716;2024-01-15T10:28:50;3.70;99.90
13960;DHT22;7052;51.050;3.716;2024-01-15T10:31:17;3.80;99.90
13960;DHT22;7052;51.050;3.716;2024-01-15T10:33:47;3.80;99.90
13960;DHT22;7052;51.050;3.716;2024-01-15T10:36:16;3.90;99.90
13960;DHT22;7052;51.050;3.716;2024-01-15T10:38:43;3.90;99.90
13960;DHT22;7052;51.050;3.716;2024-01-15T10:41:12;4.00;99.90
13960;DHT22;7052;51.050;3.716;2024-01-15T10:43:41;3.90;99.90
13960;DHT22;7052;51.050;3.716;2024-01-15T10:46:12;3.90;99.90
13960;DHT22;7052;51.050;3.716;2024-01-15T10:48:39;3.90;99.90
13960;DHT22;7052;51.050;3.716;2024-01-15T10:51:07;4.00;99.90
13960;DHT22;7052;51.050;3.716;2024-01-15T10:53:38;3.90;99.90
13960;DHT22;7052;51.050;3.716;2024-01-15T10:56:11;3.80;99.90
13960;DHT22;7052;51.050;3.716;2024-01-15T10:58:39;3.80;99.90
13960;DHT22;7052;51.050;3.716;2024-01-15T11:01:07;3.70;99.90
13960;DHT22;7052;51.050;3.716;2024-01-15T11:03:35;3.60;99.90
13960;DHT22;7052;51.050;3.716;2024-01-15T11:06:17;3.60;99.90
13960;DHT22;7052;51.050;3.716;2024-01-15T11:08:45;3.60;99.90
13960;DHT22;7052;51.050;3.716;2024-01-15T11:11:16;3.60;99.90
13960;DHT22;7052;51.050;3.716;2024-01-15T11:13:46;3.60;99.90
13960;DHT22;7052;51.050;3.716;2024-01-15T11:16:16;3.70;99.90
13960;DHT22;7052;51.050;3.716;2024-01-15T11:19:02;3.70;99.90
13960;DHT22;7052;51.050;3.716;2024-01-15T11:21:32;3.70;99.90
13960;DHT22;7052;51.050;3.716;2024-01-15T11:24:00;3.80;99.90
13960;DHT22;7052;51.050;3.716;2024-01-15T11:26:48;3.80;99.90
13960;DHT22;7052;51.050;3.716;2024-01-15T11:29:30;3.80;99.90
13960;DHT22;7052;51.050;3.716;2024-01-15T11:32:04;3.90;99.90
13960;DHT22;7052;51.050;3.716;2024-01-15T11:34:51;3.90;99.90
13960;DHT22;7052;51.050;3.716;2024-01-15T11:37:20;3.90;99.90
13960;DHT22;7052;51.050;3.716;2024-01-15T11:39:51;3.90;99.90
13960;DHT22;7052;51.050;3.716;2024-01-15T11:42:24;3.80;99.90
13960;DHT22;7052;51.050;3.716;2024-01-15T11:44:55;3.90;99.90
13960;DHT22;7052;51.050;3.716;2024-01-15T11:50:27;4.00;99.90
13960;DHT22;7052;51.050;3.716;2024-01-15T11:53:00;4.10;99.90
13960;DHT22;7052;51.050;3.716;2024-01-15T11:55:30;4.30;99.90
13960;DHT22;7052;51.050;3.716;2024-01-15T11:58:08;4.50;99.90
13960;DHT22;7052;51.050;3.716;2024-01-15T12:00:39;4.60;99.90
13960;DHT22;7052;51.050;3.716;2024-01-15T12:03:09;4.60;99.90
13960;DHT22;7052;51.050;3.716;2024-01-15T12:05:38;4.60;99.90
13960;DHT22;7052;51.050;3.716;2024-01-15T12:08:14;4.60;99.90
13960;DHT22;7052;51.050;3.716;2024-01-15T12:10:44;4.60;99.90
13960;DHT22;7052;51.050;3.716;2024-01-15T12:13:14;4.80;99.90
13960;DHT22;7052;51.050;3.716;2024-01-15T12:15:47;4.80;99.90
13960;DHT22;7052;51.050;3.716;2024-01-15T12:18:26;4.70;99.90
13960;DHT22;7052;51.050;3.716;2024-01-15T12:20:59;4.70;99.90
13960;DHT22;7052;51.050;3.716;2024-01-15T12:23:26;4.70;99.90
13960;DHT22;7052;51.050;3.716;2024-01-15T12:25:54;4.70;99.90
13960;DHT22;7052;51.050;3.716;2024-01-15T12:28:27;4.70;99.90
13960;DHT22;7052;51.050;3.716;2024-01-15T12:30:55;4.60;99.90
13960;DHT22;7052;51.050;3.716;2024-01-15T12:33:25;4.60;99.90
13960;DHT22;7052;51.050;3.716;2024-01-15T12:35:58;4.50;99.90
13960;DHT22;7052;51.050;3.716;2024-01-15T12:38:28;4.40;99.90
13960;DHT22;7052;51.050;3.716;2024-01-15T12:40:57;4.40;99.90
13960;DHT22;7052;51.050;3.716;2024-01-15T12:43:32;4.30;99.90
13960;DHT22;7052;51.050;3.716;2024-01-15T12:46:00;4.30;99.90
13960;DHT22;7052;51.050;3.716;2024-01-15T12:48:26;4.20;99.90
13960;DHT22;7052;51.050;3.716;2024-01-15T12:50:55;4.20;99.90
13960;DHT22;7052;51.050;3.716;2024-01-15T12:53:23;4.40;99.90
13960;DHT22;7052;51.050;3.716;2024-01-15T12:55:50;4.40;99.90
13960;DHT22;7052;51.050;3.716;2024-01-15T12:58:19;4.50;99.90
13960;DHT22;7052;51.050;3.716;2024-01-15T13:00:51;4.50;99.90
13960;DHT22;7052;51.050;3.716;2024-01-15T13:03:20;4.60;99.90
13960;DHT22;7052;51.050;3.716;2024-01-15T13:05:50;4.70;99.90
13960;DHT22;7052;51.050;3.716;2024-01-15T13:08:18;4.90;99.90
13960;DHT22;7052;51.050;3.716;2024-01-15T13:10:45;5.00;99.90
13960;DHT22;7052;51.050;3.716;2024-01-15T13:13:12;5.10;99.90
13960;DHT22;7052;51.050;3.716;2024-01-15T13:15:40;5.20;98.80
13960;DHT22;7052;51.050;3.716;2024-01-15T13:18:11;5.20;98.70
13960;DHT22;7052;51.050;3.716;2024-01-15T13:20:40;5.10;98.40
13960;DHT22;7052;51.050;3.716;2024-01-15T13:23:11;5.10;98.50
13960;DHT22;7052;51.050;3.716;2024-01-15T13:25:40;5.10;98.10
13960;DHT22;7052;51.050;3.716;2024-01-15T13:28:07;5.10;97.80
13960;DHT22;7052;51.050;3.716;2024-01-15T13:30:34;5.10;97.80
13960;DHT22;7052;51.050;3.716;2024-01-15T13:33:03;5.10;98.30
13960;DHT22;7052;51.050;3.716;2024-01-15T13:35:33;5.10;98.40
13960;DHT22;7052;51.050;3.716;2024-01-15T13:38:02;5.00;98.80
13960;DHT22;7052;51.050;3.716;2024-01-15T13:40:29;5.00;98.90
13960;DHT22;7052;51.050;3.716;2024-01-15T13:43:04;4.90;98.80
13960;DHT22;7052;51.050;3.716;2024-01-15T13:45:35;4.80;99.60
13960;DHT22;7052;51.050;3.716;2024-01-15T13:48:04;4.70;99.90
13960;DHT22;7052;51.050;3.716;2024-01-15T13:50:36;4.70;99.90
13960;DHT22;7052;51.050;3.716;2024-01-15T13:53:06;4.50;99.90
13960;DHT22;7052;51.050;3.716;2024-01-15T13:55:44;4.60;99.90
13960;DHT22;7052;51.050;3.716;2024-01-15T13:58:11;4.60;99.90
13960;DHT22;7052;51.050;3.716;2024-01-15T14:00:38;4.50;99.90
13960;DHT22;7052;51.050;3.716;2024-01-15T14:03:08;4.40;99.90
13960;DHT22;7052;51.050;3.716;2024-01-15T14:05:37;4.40;99.90
13960;DHT22;7052;51.050;3.716;2024-01-15T14:08:05;4.40;99.90
13960;DHT22;7052;51.050;3.716;2024-01-15T14:10:34;4.40;99.90
13960;DHT22;7052;51.050;3.716;2024-01-15T14:13:01;4.40;99.90
13960;DHT22;7052;51.050;3.716;2024-01-15T14:15:33;4.60;99.90
13960;DHT22;7052;51.050;3.716;2024-01-15T14:18:02;4.70;99.90
13960;DHT22;7052;51.050;3.716;2024-01-15T14:20:29;4.70;99.90
13960;DHT22;7052;51.050;3.716;2024-01-15T14:22:58;4.70;99.90
13960;DHT22;7052;51.050;3.716;2024-01-15T14:25:25;4.70;99.90
13960;DHT22;7052;51.050;3.716;2024-01-15T14:27:52;4.70;99.90
13960;DHT22;7052;51.050;3.716;2024-01-15T14:30:20;4.80;99.90
13960;DHT22;7052;51.050;3.716;2024-01-15T14:32:48;4.70;99.90
13960;DHT22;7052;51.050;3.716;2024-01-15T14:35:16;4.60;99.90
13960;DHT22;7052;51.050;3.716;2024-01-15T14:37:44;4.50;99.90
13960;DHT22;7052;51.050;3.716;2024-01-15T14:40:13;4.50;99.90
13960;DHT22;7052;51.050;3.716;2024-01-15T14:42:41;4.50;99.90
13960;DHT22;7052;51.050;3.716;2024-01-15T14:45:09;4.50;99.90
13960;DHT22;7052;51.050;3.716;2024-01-15T14:47:41;4.50;99.90
13960;DHT22;7052;51.050;3.716;2024-01-15T14:50:14;4.50;99.90
13960;DHT22;7052;51.050;3.716;2024-01-15T14:52:41;4.60;99.90
13960;DHT22;7052;51.050;3.716;2024-01-15T14:55:11;4.70;99.90
13960;DHT22;7052;51.050;3.716;2024-01-15T14:57:39;4.90;99.90
13960;DHT22;7052;51.050;3.716;2024-01-15T15:00:08;4.90;99.90
13960;DHT22;7052;51.050;3.716;2024-01-15T15:02:37;4.80;99.90
13960;DHT22;7052;51.050;3.716;2024-01-15T15:05:05;4.40;99.90
13960;DHT22;7052;51.050;3.716;2024-01-15T15:07:41;4.10;99.90
13960;DHT22;7052;51.050;3.716;2024-01-15T15:10:22;3.90;99.90
13960;DHT22;7052;51.050;3.716;2024-01-15T15:12:49;3.70;99.90
13960;DHT22;7052;51.050;3.716;2024-01-15T15:15:16;3.60;99.90
13960;DHT22;7052;51.050;3.716;2024-01-15T15:17:44;3.40;99.90
13960;DHT22;7052;51.050;3.716;2024-01-15T15:20:11;3.40;99.90
13960;DHT22;7052;51.050;3.716;2024-01-15T15:22:40;3.30;99.90
13960;DHT22;7052;51.050;3.716;2024-01-15T15:25:10;3.30;99.90
13960;DHT22;7052;51.050;3.716;2024-01-15T15:27:39;3.40;99.90
13960;DHT22;7052;51.050;3.716;2024-01-15T15:30:07;3.40;99.90
13960;DHT22;7052;51.050;3.716;2024-01-15T15:32:35;3.50;99.90
13960;DHT22;7052;51.050;3.716;2024-01-15T15:35:05;3.60;99.90
13960;DHT22;7052;51.050;3.716;2024-01-15T15:37:35;3.60;99.90
13960;DHT22;7052;51.050;3.716;2024-01-15T15:40:08;3.60;99.90
13960;DHT22;7052;51.050;3.716;2024-01-15T15:42:39;3.70;99.90
13960;DHT22;7052;51.050;3.716;2024-01-15T15:45:08;3.70;99.90
13960;DHT22;7052;51.050;3.716;2024-01-15T15:47:37;3.60;99.90
13960;DHT22;7052;51.050;3.716;2024-01-15T15:50:05;3.60;99.90
13960;DHT22;7052;51.050;3.716;2024-01-15T15:52:32;3.60;99.90
13960;DHT22;7052;51.050;3.716;2024-01-15T15:55:04;3.60;99.90
13960;DHT22;7052;51.050;3.716;2024-01-15T15:57:39;3.50;99.90
13960;DHT22;7052;51.050;3.716;2024-01-15T16:00:06;3.50;99.90
13960;DHT22;7052;51.050;3.716;2024-01-15T16:02:34;3.40;99.90
13960;DHT22;7052;51.050;3.716;2024-01-15T16:05:01;3.40;99.90
13960;DHT22;7052;51.050;3.716;2024-01-15T16:07:35;3.40;99.90
13960;DHT22;7052;51.050;3.716;2024-01-15T16:10:02;3.30;99.90
13960;DHT22;7052;51.050;3.716;2024-01-15T16:12:30;3.30;99.90
13960;DHT22;7052;51.050;3.716;2024-01-15T16:15:01;3.30;99.90